Skip Navigation LinksHome page > Weather > Current weather Skip Navigation Links

Current Weather

Alert, Nunavut

For information only: do not use for flight planning or navigation.
Latest weather
Observation time Wednesday, October 1, 2014 12:00 PM EDT
Local time Wednesday, October 1, 2014 12:14 PM EDT
Flight conditions Visual Meteorological Conditions
Winds
Wind direction Northwest (320°)
Wind speed 7 mph
Visibility 10 mi.
Sky condition
Ceiling 21,000 ft. broken clouds
Cloud layer few clouds 600 ft.
Cloud layer scattered clouds 1,500 ft.
Cloud layer broken clouds 21,000 ft.
Temperature -8°F
Dewpoint -8°F
Altimeter 30.08 in.Hg
Derived measurements
Relative humidity 100%
Wind chill -22°F
Density altitude -4927 ft.
Sea-level pressure 30.09 in.Hg
METAR CYLT 011600Z 32006KT 10SM FEW006 SCT015 BKN210 M22/M22 A3008 RMK ST1SC3CI1 SLP190

Settings

Location code

InnerDrive.Weather 4.0.5372.0 Release CLR 4.0.30319.34014
Copyright ©2014 Inner Drive Technology. All rights reserved. Portions Copyright ©1986-2014 David Braverman.

Find weather

Site navigation


Skip Navigation Links

Place info

Page info

PayPal - The safer, easier way to pay online!

Return home.

Copyright ©2014 Inner Drive Technology. Purveyors of fine, hand-crafted computer software. Page printed 2014-10-01T16:14:45 UTC.